Time;durP1;ratioP1;P1;durP2;ratioP2;P2;SDS_P1;SDS_P2;PMS_P1;PMS_P2;Temp;Humidity;BMP_temperature;BMP_pressure;BME280_temperature;BME280_humidity;BME280_pressure;Samples;Min_cycle;Max_cycle;Signal;HPM_P1;HPM_P2
2021/06/18 00:00:08;;;;;;;0.10;0.10;;;;;;;24.99;57.46;101492.78;5096099;28;20028;-83
2021/06/18 00:02:37;;;;;;;0.10;0.10;;;;;;;24.99;56.92;101490.06;5095315;28;20058;-82
2021/06/18 00:05:05;;;;;;;0.52;0.52;;;;;;;24.89;57.00;101476.31;5095437;28;20032;-83
2021/06/18 00:07:31;;;;;;;0.30;0.30;;;;;;;24.87;57.31;101473.72;5096470;28;20028;-82
2021/06/18 00:09:57;;;;;;;0.50;0.50;;;;;;;24.94;57.00;101484.13;5094840;28;20038;-82
2021/06/18 00:12:24;;;;;;;1.10;1.02;;;;;;;24.94;57.38;101478.69;5095452;28;20024;-82
2021/06/18 00:14:50;;;;;;;0.10;0.10;;;;;;;24.96;57.81;101477.63;5094766;28;20054;-81
2021/06/18 00:17:16;;;;;;;0.57;0.55;;;;;;;24.97;57.58;101464.91;5095435;28;20063;-83
2021/06/18 00:19:43;;;;;;;0.22;0.22;;;;;;;24.99;57.09;101468.38;5095133;28;20024;-82
2021/06/18 00:22:09;;;;;;;1.10;0.85;;;;;;;24.93;57.68;101468.81;5095220;28;20505;-82
2021/06/18 00:24:35;;;;;;;0.10;0.10;;;;;;;24.88;57.59;101471.84;5094789;28;20031;-82
2021/06/18 00:27:02;;;;;;;0.20;0.20;;;;;;;24.90;57.41;101461.78;5095324;28;20157;-82
2021/06/18 00:29:28;;;;;;;2.03;1.58;;;;;;;24.90;57.63;101469.03;5094621;28;20085;-83
2021/06/18 00:31:54;;;;;;;3.03;0.90;;;;;;;24.90;58.33;101460.91;5095436;28;20063;-82
2021/06/18 00:34:21;;;;;;;0.25;0.25;;;;;;;24.86;58.08;101447.56;5094942;28;20032;-82
2021/06/18 00:36:47;;;;;;;0.20;0.20;;;;;;;24.86;57.46;101453.00;5095185;28;20345;-82
2021/06/18 00:39:13;;;;;;;1.08;0.77;;;;;;;24.85;57.71;101436.84;5093481;28;20395;-82
2021/06/18 00:41:40;;;;;;;0.00;0.00;;;;;;;24.83;57.82;101446.94;5086467;28;20173;-82
2021/06/18 00:44:06;;;;;;;0.55;0.55;;;;;;;24.74;58.46;101453.00;5094792;28;20028;-83
2021/06/18 00:46:32;;;;;;;0.47;0.47;;;;;;;24.75;57.89;101452.91;5094451;28;20089;-82
2021/06/18 00:48:59;;;;;;;0.65;0.52;;;;;;;24.73;57.93;101452.13;5094659;28;20032;-82
2021/06/18 00:51:25;;;;;;;1.13;0.52;;;;;;;24.68;58.11;101448.88;5094606;28;20042;-82
2021/06/18 00:53:54;;;;;;;0.35;0.35;;;;;;;24.71;58.21;101462.19;5094241;28;20020;-82
2021/06/18 00:56:21;;;;;;;0.10;0.10;;;;;;;24.61;58.87;101461.06;5094529;28;20028;-82
2021/06/18 00:58:48;;;;;;;0.10;0.10;;;;;;;24.66;58.54;101461.66;5094759;28;20028;-82
2021/06/18 01:01:15;;;;;;;0.00;0.00;;;;;;;24.64;59.11;101463.59;5094411;28;20024;-82
2021/06/18 01:03:41;;;;;;;0.25;0.25;;;;;;;24.68;58.59;101470.56;5092990;28;20578;-82
2021/06/18 01:06:12;;;;;;;0.30;0.30;;;;;;;24.70;58.75;101474.03;5073954;28;20119;-82
2021/06/18 01:08:44;;;;;;;0.05;0.05;;;;;;;24.77;58.38;101472.59;5080878;28;20039;-82
2021/06/18 01:17:00;;;;;;;0.10;0.10;;;;;;;24.76;58.74;101487.16;5091032;27;20174;-83
2021/06/18 01:22:15;;;;;;;0.65;0.65;;;;;;;24.82;58.74;101500.28;5119517;27;20141;-82
2021/06/18 01:25:10;;;;;;;0.10;0.10;;;;;;;24.83;59.18;101510.13;5094735;28;20368;-82
2021/06/18 01:30:39;;;;;;;0.20;0.20;;;;;;;24.82;58.96;101478.59;5076675;28;20169;-81
2021/06/18 01:33:10;;;;;;;0.30;0.30;;;;;;;24.79;58.75;101473.38;5071514;28;20033;-83
2021/06/18 01:35:41;;;;;;;0.00;0.00;;;;;;;24.76;58.65;101481.72;5072143;28;20048;-81
2021/06/18 01:38:10;;;;;;;1.70;1.20;;;;;;;24.71;59.84;101481.16;5072287;28;20119;-81
2021/06/18 01:40:37;;;;;;;0.63;0.63;;;;;;;24.74;59.17;101472.84;5070923;28;20021;-81
2021/06/18 01:43:06;;;;;;;0.20;0.20;;;;;;;24.68;59.15;101470.56;5068912;28;20126;-82
2021/06/18 01:45:35;;;;;;;0.25;0.25;;;;;;;24.66;59.57;101451.69;5070655;28;20029;-81
2021/06/18 01:48:04;;;;;;;0.15;0.15;;;;;;;24.63;60.42;101451.00;5071073;28;20029;-81
2021/06/18 01:50:32;;;;;;;0.57;0.57;;;;;;;24.65;59.86;101459.91;5070118;28;20533;-82
2021/06/18 01:53:06;;;;;;;0.50;0.50;;;;;;;24.61;60.05;101466.50;5071168;28;20036;-81
2021/06/18 01:55:35;;;;;;;0.40;0.40;;;;;;;24.58;60.04;101461.31;5071379;28;20541;-82
2021/06/18 01:58:04;;;;;;;0.63;0.63;;;;;;;24.58;59.94;101447.75;5070474;28;20112;-82
2021/06/18 02:00:33;;;;;;;0.00;0.00;;;;;;;24.56;59.97;101455.97;5070663;28;20471;-82
2021/06/18 02:03:07;;;;;;;5.57;0.95;;;;;;;24.53;60.74;101450.78;5070691;28;20128;-82
2021/06/18 02:05:35;;;;;;;0.73;0.73;;;;;;;24.52;60.68;101443.63;5070766;28;20029;-82
2021/06/18 02:08:04;;;;;;;0.20;0.20;;;;;;;24.57;60.60;101435.19;5070916;28;20025;-82
2021/06/18 02:10:34;;;;;;;0.10;0.10;;;;;;;24.62;60.15;101433.03;5070350;28;20032;-83
2021/06/18 02:13:01;;;;;;;0.10;0.10;;;;;;;24.57;61.57;101435.19;5070250;28;20080;-81
2021/06/18 02:15:30;;;;;;;0.00;0.00;;;;;;;24.59;59.60;101447.66;5070185;28;20029;-81
2021/06/18 02:17:57;;;;;;;0.32;0.32;;;;;;;24.55;60.88;101449.69;5070697;28;20033;-81
2021/06/18 02:20:24;;;;;;;0.10;0.10;;;;;;;24.46;61.91;101450.34;5070188;28;20503;-82
2021/06/18 02:22:53;;;;;;;0.75;0.75;;;;;;;24.49;61.95;101452.84;5068019;28;20023;-81
2021/06/18 02:25:20;;;;;;;0.50;0.50;;;;;;;24.46;61.50;101458.47;5069525;28;20032;-82
2021/06/18 02:27:47;;;;;;;0.32;0.32;;;;;;;24.39;62.99;101460.72;5070007;28;20036;-82
2021/06/18 02:30:15;;;;;;;3.08;1.95;;;;;;;24.40;62.39;101456.19;5069402;28;20037;-81
2021/06/18 02:32:44;;;;;;;2.28;0.65;;;;;;;24.37;63.57;101456.38;5069858;28;20051;-82
2021/06/18 02:35:11;;;;;;;0.08;0.08;;;;;;;24.27;63.06;101469.69;5069375;28;20472;-82
2021/06/18 02:37:38;;;;;;;3.45;1.80;;;;;;;24.22;62.68;101490.78;5069640;28;20403;-82
2021/06/18 02:40:06;;;;;;;0.73;0.73;;;;;;;24.04;62.62;101504.59;5067417;28;20490;-82
2021/06/18 02:42:32;;;;;;;2.35;0.70;;;;;;;23.98;62.72;101518.53;5055915;28;20033;-81
2021/06/18 02:44:59;;;;;;;0.50;0.50;;;;;;;23.90;62.95;101529.84;5056341;28;20460;-82
2021/06/18 02:47:53;;;;;;;3.60;1.10;;;;;;;23.76;64.13;101538.00;5056043;28;20037;-81
2021/06/18 02:53:28;;;;;;;1.70;1.30;;;;;;;23.57;64.88;101532.91;5108147;27;20756;-80
2021/06/18 02:56:25;;;;;;;2.60;0.70;;;;;;;23.44;66.62;101505.78;5091075;28;20037;-80
2021/06/18 02:58:59;;;;;;;0.85;0.85;;;;;;;23.47;66.40;101510.13;5091140;28;20036;-81
2021/06/18 03:01:30;;;;;;;0.10;0.10;;;;;;;23.52;65.22;101508.84;5070809;28;20056;-81
2021/06/18 03:04:00;;;;;;;0.60;0.60;;;;;;;23.50;65.59;101516.22;5071699;28;20024;-81
2021/06/18 03:06:29;;;;;;;0.20;0.20;;;;;;;23.49;65.55;101514.47;5071013;28;20510;-80
2021/06/18 03:09:04;;;;;;;0.30;0.30;;;;;;;23.48;66.32;101512.72;5071285;28;20111;-82
2021/06/18 03:11:35;;;;;;;0.13;0.13;;;;;;;23.44;66.07;101505.78;5071310;28;20044;-80
2021/06/18 03:14:09;;;;;;;0.27;0.27;;;;;;;23.46;65.51;101493.00;5071191;28;20035;-81
2021/06/18 03:16:38;;;;;;;0.60;0.60;;;;;;;23.46;65.95;101498.44;5070799;28;20770;-81
2021/06/18 03:19:08;;;;;;;0.80;0.80;;;;;;;23.40;66.09;101504.22;5071044;28;20029;-81
2021/06/18 03:21:37;;;;;;;0.47;0.47;;;;;;;23.40;66.47;101509.63;5071030;28;20088;-80
2021/06/18 03:24:06;;;;;;;3.85;1.75;;;;;;;23.35;66.99;101523.47;5070442;28;20055;-82
2021/06/18 03:26:33;;;;;;;0.85;0.85;;;;;;;23.40;66.13;101526.75;5070395;28;20020;-80
2021/06/18 03:29:01;;;;;;;0.80;0.80;;;;;;;23.42;66.88;101529.34;5070546;28;20037;-81
2021/06/18 03:31:27;;;;;;;0.20;0.20;;;;;;;23.42;66.34;101534.75;5070452;28;20029;-82
2021/06/18 03:33:55;;;;;;;0.30;0.30;;;;;;;23.47;66.20;101548.84;5070015;28;20107;-81
2021/06/18 03:36:24;;;;;;;0.10;0.10;;;;;;;23.46;66.44;101566.03;5070301;28;20391;-81
2021/06/18 03:38:53;;;;;;;0.55;0.55;;;;;;;23.48;67.07;101572.22;5070169;28;20028;-81
2021/06/18 03:41:21;;;;;;;0.47;0.47;;;;;;;23.50;67.27;101575.72;5069225;28;20373;-82
2021/06/18 03:43:49;;;;;;;0.40;0.40;;;;;;;23.51;67.90;101588.25;5069590;28;20426;-81
2021/06/18 03:46:17;;;;;;;0.90;0.63;;;;;;;23.56;67.69;101591.56;5070041;28;20040;-81
2021/06/18 03:48:45;;;;;;;0.50;0.50;;;;;;;23.58;67.07;101589.59;5070112;28;20079;-82
2021/06/18 03:51:13;;;;;;;0.13;0.13;;;;;;;23.58;66.96;101594.16;5069134;28;20568;-82
2021/06/18 03:53:39;;;;;;;0.32;0.32;;;;;;;23.57;66.54;101593.25;5069932;28;20025;-81
2021/06/18 03:56:06;;;;;;;0.00;0.00;;;;;;;23.59;66.22;101606.72;5070114;28;20024;-81
2021/06/18 03:58:35;;;;;;;0.60;0.60;;;;;;;23.61;66.28;101603.91;5070053;28;20024;-81
2021/06/18 04:01:04;;;;;;;0.40;0.40;;;;;;;23.63;67.17;101599.25;5069670;28;20033;-81
2021/06/18 04:03:31;;;;;;;0.85;0.85;;;;;;;23.67;66.66;101603.53;5061826;28;20519;-81
2021/06/18 04:06:01;;;;;;;0.22;0.22;;;;;;;23.55;68.45;101595.22;5056183;28;20078;-82
2021/06/18 04:08:28;;;;;;;1.15;1.05;;;;;;;23.46;67.40;101579.56;5056490;28;20029;-81
2021/06/18 04:10:56;;;;;;;0.65;0.65;;;;;;;23.45;67.82;101572.41;5056058;28;20033;-81
2021/06/18 04:13:23;;;;;;;4.95;2.35;;;;;;;23.50;67.83;101564.91;5055680;28;20037;-82
2021/06/18 04:15:49;;;;;;;1.98;0.90;;;;;;;23.47;68.90;101567.78;5056628;28;20029;-82
2021/06/18 04:18:20;;;;;;;2.97;1.33;;;;;;;23.42;68.92;101572.63;5056637;28;20503;-83
2021/06/18 04:20:50;;;;;;;0.35;0.35;;;;;;;23.48;68.24;101565.94;5056655;28;20104;-82
2021/06/18 04:23:16;;;;;;;0.50;0.50;;;;;;;23.47;68.83;101559.66;5056269;28;20035;-81
2021/06/18 04:25:42;;;;;;;0.65;0.65;;;;;;;23.48;68.96;101556.00;5056708;28;20080;-81
2021/06/18 04:28:08;;;;;;;0.85;0.85;;;;;;;23.41;69.03;101550.13;5056196;28;20029;-81
2021/06/18 04:30:34;;;;;;;0.88;0.88;;;;;;;23.42;68.56;101550.97;5056436;28;20112;-82
2021/06/18 04:33:01;;;;;;;0.90;0.68;;;;;;;23.43;68.12;101544.59;5056033;28;20037;-81
2021/06/18 04:35:27;;;;;;;0.22;0.22;;;;;;;23.39;68.49;101521.41;5056664;28;20068;-81
2021/06/18 04:37:53;;;;;;;0.70;0.70;;;;;;;23.38;68.61;101506.19;5054484;28;20037;-82
2021/06/18 04:40:19;;;;;;;0.70;0.70;;;;;;;23.35;68.16;101484.72;5075958;22;20457;-81
2021/06/18 04:42:45;;;;;;;0.68;0.68;;;;;;;23.32;68.13;101471.41;5055253;28;20079;-81
2021/06/18 04:45:13;;;;;;;0.10;0.10;;;;;;;23.26;68.54;101454.63;5067074;28;20055;-81
2021/06/18 04:47:39;;;;;;;0.52;0.52;;;;;;;23.19;68.61;101441.56;5055128;28;20029;-81
2021/06/18 04:50:06;;;;;;;0.55;0.55;;;;;;;23.16;68.40;101456.16;5055261;28;20025;-81
2021/06/18 04:52:33;;;;;;;0.30;0.30;;;;;;;23.06;68.77;101457.69;5054885;28;20086;-82
2021/06/18 04:55:01;;;;;;;1.05;1.05;;;;;;;23.07;68.66;101459.44;5055591;28;20561;-82
2021/06/18 04:57:28;;;;;;;0.82;0.82;;;;;;;22.91;68.93;101454.97;5054908;28;20487;-82
2021/06/18 04:59:55;;;;;;;2.05;1.58;;;;;;;23.00;68.97;101434.59;5055146;28;20106;-81
2021/06/18 05:02:21;;;;;;;0.50;0.50;;;;;;;23.03;68.64;101411.91;5054817;28;20087;-82
2021/06/18 05:04:47;;;;;;;0.60;0.60;;;;;;;22.94;68.92;101408.84;5054868;28;20460;-81
2021/06/18 05:07:13;;;;;;;0.20;0.20;;;;;;;23.03;68.60;101420.03;5054850;28;20473;-82
2021/06/18 05:09:40;;;;;;;0.30;0.30;;;;;;;22.99;68.79;101440.13;5054664;28;20491;-81
2021/06/18 05:12:06;;;;;;;0.20;0.20;;;;;;;23.00;68.89;101429.19;5054663;28;20395;-82
2021/06/18 05:14:32;;;;;;;0.30;0.30;;;;;;;22.89;69.11;101437.13;5053913;28;20029;-81
2021/06/18 05:16:59;;;;;;;0.82;0.82;;;;;;;23.00;68.80;101428.34;5055054;28;20037;-81
2021/06/18 05:19:26;;;;;;;0.20;0.20;;;;;;;22.97;68.89;101433.94;5063776;28;20095;-80
2021/06/18 05:21:52;;;;;;;0.20;0.20;;;;;;;23.08;68.54;101435.00;5065088;28;20025;-81
2021/06/18 05:24:19;;;;;;;2.08;1.02;;;;;;;22.91;69.69;101441.47;5063263;28;20025;-82
2021/06/18 05:26:45;;;;;;;1.58;1.52;;;;;;;22.99;69.40;101440.13;5063771;28;20046;-82
2021/06/18 05:29:11;;;;;;;0.20;0.20;;;;;;;23.09;69.12;101425.94;5064898;28;20104;-81
2021/06/18 05:31:38;;;;;;;0.38;0.38;;;;;;;23.13;69.29;101425.72;5064336;28;20055;-83
2021/06/18 05:34:05;;;;;;;2.63;1.98;;;;;;;23.19;69.18;101423.53;5073395;28;20039;-81
2021/06/18 05:36:32;;;;;;;8.52;1.15;;;;;;;23.18;69.02;101429.03;5054259;28;20128;-83
2021/06/18 05:38:58;;;;;;;0.45;0.45;;;;;;;23.22;69.34;101428.75;5047643;28;20037;-82
2021/06/18 05:41:24;;;;;;;0.43;0.43;;;;;;;23.26;68.91;101432.13;5044397;28;20037;-81
2021/06/18 05:43:50;;;;;;;0.25;0.25;;;;;;;23.24;68.56;101434.94;5054094;28;20039;-82
2021/06/18 05:46:16;;;;;;;0.30;0.30;;;;;;;23.18;69.13;101438.03;5062891;28;20480;-95
2021/06/18 05:48:43;;;;;;;3.40;0.90;;;;;;;23.32;68.51;101433.56;5063758;28;20033;-84
2021/06/18 05:51:09;;;;;;;0.85;0.38;;;;;;;23.34;68.13;101426.22;5054397;28;20468;-84
2021/06/18 05:53:35;;;;;;;0.10;0.10;;;;;;;23.25;68.21;101417.75;5054176;28;20090;-87
2021/06/18 05:56:02;;;;;;;0.57;0.57;;;;;;;23.37;68.12;101418.75;5054177;28;20059;-84
2021/06/18 05:58:28;;;;;;;0.93;0.93;;;;;;;23.24;68.81;101412.41;5053784;28;20498;-91
2021/06/18 06:00:54;;;;;;;0.20;0.20;;;;;;;23.37;68.13;101401.69;5064977;28;20040;-89
2021/06/18 06:03:22;;;;;;;0.47;0.47;;;;;;;23.41;68.72;101397.81;5050633;28;20025;-88
2021/06/18 06:05:49;;;;;;;0.38;0.38;;;;;;;23.45;68.13;101388.50;5062136;28;20029;-93
2021/06/18 06:08:16;;;;;;;0.70;0.70;;;;;;;23.40;68.61;101378.03;5062920;28;20479;-94
2021/06/18 06:10:44;;;;;;;0.88;0.88;;;;;;;23.44;68.59;101389.50;5073224;28;20044;-95
2021/06/18 06:13:10;;;;;;;2.90;1.15;;;;;;;23.54;68.39;101400.56;5061937;28;20029;-96
2021/06/18 06:15:36;;;;;;;0.60;0.60;;;;;;;23.55;68.85;101395.06;5061631;28;20048;-94
2021/06/18 06:18:02;;;;;;;1.85;0.65;;;;;;;23.64;68.29;101387.28;5064298;28;20033;-96
2021/06/18 06:20:28;;;;;;;1.05;1.05;;;;;;;23.61;68.61;101382.09;5065756;28;20040;-92
2021/06/18 06:22:54;;;;;;;0.40;0.40;;;;;;;23.78;68.05;101389.94;5061558;28;20391;-96
2021/06/18 06:25:21;;;;;;;0.63;0.63;;;;;;;23.77;68.17;101393.63;5059877;28;20029;-96
2021/06/18 06:27:47;;;;;;;0.85;0.85;;;;;;;23.83;67.70;101397.78;5053277;28;20373;-94
2021/06/18 06:30:14;;;;;;;6.35;1.60;;;;;;;23.88;67.67;101406.44;5054157;28;20037;-94
2021/06/18 06:32:40;;;;;;;0.40;0.40;;;;;;;23.87;67.92;101404.69;5066794;28;20086;-95
2021/06/18 06:35:06;;;;;;;0.50;0.50;;;;;;;23.84;68.38;101404.88;5077348;28;20043;-92
2021/06/18 06:37:33;;;;;;;0.68;0.68;;;;;;;23.93;67.61;101408.88;5076672;28;20025;-95
2021/06/18 06:40:03;;;;;;;0.60;0.60;;;;;;;23.97;68.12;101407.69;5067964;28;20120;-86
2021/06/18 06:42:29;;;;;;;0.40;0.40;;;;;;;24.10;67.42;101395.06;5077061;28;20035;-94
2021/06/18 06:44:55;;;;;;;1.65;0.50;;;;;;;24.20;67.41;101395.25;5068158;28;20097;-93
2021/06/18 06:47:23;;;;;;;2.10;1.92;;;;;;;24.25;67.37;101403.06;5078265;28;20062;-96
2021/06/18 06:49:53;;;;;;;0.30;0.30;;;;;;;24.35;67.12;101401.47;5056608;22;20048;-86
2021/06/18 06:52:55;;;;;;;2.78;1.17;;;;;;;24.37;67.01;101403.13;5035228;28;20049;-86
2021/06/18 06:55:51;;;;;;;0.13;0.13;;;;;;;24.52;66.35;101394.88;5034759;28;20038;-95
2021/06/18 06:58:19;;;;;;;0.30;0.30;;;;;;;24.36;65.77;101400.50;5021484;28;20061;-96
2021/06/18 07:00:58;;;;;;;0.70;0.70;;;;;;;24.50;66.44;101410.34;5027729;28;20042;-94
2021/06/18 07:03:28;;;;;;;0.30;0.30;;;;;;;24.45;66.56;101417.94;5023241;28;20072;-96
2021/06/18 07:05:54;;;;;;;0.40;0.40;;;;;;;24.54;66.24;101418.16;5041279;28;20091;-96
2021/06/18 07:08:23;;;;;;;0.93;0.93;;;;;;;24.43;66.29;101422.63;5035192;28;20049;-95
2021/06/18 07:10:50;;;;;;;0.55;0.55;;;;;;;24.36;65.77;101424.84;5037367;28;20030;-92
2021/06/18 07:13:17;;;;;;;1.48;0.75;;;;;;;24.48;65.67;101425.88;5404694;22;20063;-92
2021/06/18 07:15:43;;;;;;;0.28;0.28;;;;;;;24.45;65.59;101426.94;5062126;28;20039;-96
2021/06/18 07:18:10;;;;;;;0.45;0.45;;;;;;;24.50;65.24;101430.19;5064795;28;20056;-96
2021/06/18 07:20:36;;;;;;;0.80;0.80;;;;;;;24.48;65.44;101432.13;5062808;28;20049;-96
2021/06/18 07:23:02;;;;;;;0.00;0.00;;;;;;;24.47;65.57;101438.53;5063707;28;20044;-96
2021/06/18 07:25:29;;;;;;;0.22;0.22;;;;;;;24.41;65.07;101436.22;5063281;28;20498;-91
2021/06/18 07:27:56;;;;;;;0.98;0.75;;;;;;;24.46;65.08;101433.22;5071403;28;20031;-96
2021/06/18 07:30:23;;;;;;;0.85;0.75;;;;;;;24.36;65.58;101444.69;5074079;28;20029;-83
2021/06/18 07:32:52;;;;;;;0.10;0.10;;;;;;;24.41;65.44;101435.38;5064997;28;20063;-96
2021/06/18 07:35:18;;;;;;;0.40;0.40;;;;;;;24.45;65.12;101448.63;5071692;28;20116;-94
2021/06/18 07:37:46;;;;;;;0.20;0.20;;;;;;;24.40;65.99;101450.78;5071111;28;20028;-96
2021/06/18 07:40:14;;;;;;;0.52;0.52;;;;;;;24.40;65.70;101445.38;5064792;28;20055;-93
2021/06/18 07:42:40;;;;;;;1.20;0.65;;;;;;;24.28;65.62;101451.63;5066327;28;20111;-85
2021/06/18 07:45:07;;;;;;;1.00;0.75;;;;;;;24.33;65.56;101450.31;5064015;28;20021;-89
2021/06/18 07:47:33;;;;;;;0.85;0.85;;;;;;;24.36;66.20;101454.66;5054298;28;21302;-95
2021/06/18 07:53:37;;;;;;;2.38;0.52;;;;;;;24.54;66.08;101438.97;5045034;22;20089;-90
2021/06/18 07:56:11;;;;;;;0.28;0.28;;;;;;;24.60;66.50;101429.53;5014620;28;20050;-90
2021/06/18 07:58:39;;;;;;;0.30;0.30;;;;;;;24.67;67.34;101425.47;5007112;28;20394;-95
2021/06/18 08:01:06;;;;;;;2.75;0.70;;;;;;;24.76;66.52;101419.41;5000461;28;20028;-95
2021/06/18 08:03:37;;;;;;;2.13;0.52;;;;;;;24.82;66.33;101426.22;5013486;28;20014;-95
2021/06/18 08:06:06;;;;;;;0.40;0.40;;;;;;;24.81;66.76;101416.34;5014233;28;20556;-95
2021/06/18 08:08:45;;;;;;;2.28;2.08;;;;;;;25.01;66.30;101421.22;5085229;22;20029;-86
2021/06/18 08:11:38;;;;;;;0.43;0.43;;;;;;;25.13;65.63;101402.31;5128410;22;20041;-90
2021/06/18 08:14:05;;;;;;;0.30;0.30;;;;;;;25.16;66.04;101402.97;5032227;28;20051;-91
2021/06/18 08:16:33;;;;;;;0.52;0.52;;;;;;;25.28;66.05;101397.63;5031560;28;20022;-96
2021/06/18 08:18:59;;;;;;;0.55;0.55;;;;;;;25.35;65.52;101398.91;5025534;28;20118;-92
2021/06/18 08:21:25;;;;;;;1.08;0.82;;;;;;;25.41;66.38;101401.19;5024986;28;20070;-96
2021/06/18 08:23:51;;;;;;;0.75;0.70;;;;;;;25.48;65.06;101399.75;5024850;28;20033;-95
2021/06/18 08:26:19;;;;;;;0.25;0.25;;;;;;;25.62;64.72;101392.41;5028950;28;20465;-95
2021/06/18 08:28:46;;;;;;;0.52;0.50;;;;;;;25.54;64.63;101381.28;5032126;28;20021;-81
2021/06/18 08:31:12;;;;;;;0.10;0.10;;;;;;;25.70;64.36;101387.28;5034798;28;20029;-88
2021/06/18 08:33:38;;;;;;;0.20;0.20;;;;;;;25.78;64.69;101376.72;5027847;28;20077;-90
2021/06/18 08:36:05;;;;;;;0.75;0.75;;;;;;;25.89;63.85;101375.88;5024130;28;20126;-87
2021/06/18 08:38:34;;;;;;;0.35;0.35;;;;;;;25.83;63.88;101365.50;5023762;28;20062;-89
2021/06/18 08:41:03;;;;;;;0.68;0.68;;;;;;;25.97;63.16;101375.28;5025277;28;20060;-91
2021/06/18 08:43:31;;;;;;;0.52;0.52;;;;;;;25.95;63.39;101363.69;5024007;28;20432;-90
2021/06/18 08:46:00;;;;;;;0.40;0.40;;;;;;;25.99;63.53;101352.50;5025721;28;20026;-90
2021/06/18 08:48:27;;;;;;;0.40;0.40;;;;;;;26.07;63.99;101356.47;5028691;28;20029;-94
2021/06/18 08:51:09;;;;;;;0.50;0.50;;;;;;;26.22;64.04;101354.41;5051351;28;20025;-92
2021/06/18 08:53:36;;;;;;;0.25;0.25;;;;;;;26.25;62.98;101355.03;5038978;28;20038;-93
2021/06/18 08:56:06;;;;;;;0.30;0.30;;;;;;;26.41;62.90;101354.69;5036061;28;20156;-93
2021/06/18 08:58:33;;;;;;;0.45;0.45;;;;;;;26.43;63.48;101358.16;5035528;28;20087;-94
2021/06/18 09:00:59;;;;;;;0.77;0.77;;;;;;;26.44;62.85;101343.59;5029018;28;20029;-90
2021/06/18 09:03:38;;;;;;;0.57;0.55;;;;;;;26.51;61.78;101349.41;5023138;28;20036;-91
2021/06/18 09:09:25;;;;;;;0.68;0.68;;;;;;;26.76;61.71;101369.19;5092960;27;20222;-92
2021/06/18 09:11:57;;;;;;;0.75;0.73;;;;;;;26.64;60.72;101366.44;5030436;28;20392;-85
2021/06/18 09:14:25;;;;;;;;;;;;;;;26.79;59.99;101358.94;5048194;28;20038;-85
2021/06/18 09:17:17;;;;;;;0.40;0.40;;;;;;;26.97;61.35;101347.56;5032694;28;19913;-85
2021/06/18 09:27:50;;;;;;;0.70;0.45;;;;;;;27.18;59.17;101341.31;5090493;27;20155;-84
2021/06/18 09:33:02;;;;;;;0.10;0.10;;;;;;;27.27;60.12;101335.13;5124380;27;20136;-85
2021/06/18 09:35:30;;;;;;;0.08;0.08;;;;;;;27.39;60.30;101339.56;5092498;28;20028;-85
2021/06/18 09:37:59;;;;;;;5.53;0.80;;;;;;;27.40;59.35;101341.31;5091921;28;20375;-86
2021/06/18 09:40:27;;;;;;;1.23;1.13;;;;;;;27.67;58.98;101348.13;5091882;28;20463;-86
2021/06/18 09:42:57;;;;;;;0.17;0.17;;;;;;;27.73;58.76;101341.31;5092327;28;20032;-86
2021/06/18 09:45:26;;;;;;;0.20;0.20;;;;;;;27.84;58.81;101326.75;5092178;28;20115;-85
2021/06/18 09:48:05;;;;;;;0.57;0.57;;;;;;;27.90;58.95;101320.78;5092002;28;20345;-85
2021/06/18 09:50:31;;;;;;;0.10;0.10;;;;;;;27.97;59.16;101326.59;5090093;28;20050;-84
2021/06/18 09:53:22;;;;;;;0.20;0.20;;;;;;;28.18;58.79;101318.44;5091212;28;20513;-85
2021/06/18 09:56:02;;;;;;;0.22;0.22;;;;;;;28.26;57.95;101332.22;5092064;28;20459;-86
2021/06/18 09:58:34;;;;;;;0.15;0.15;;;;;;;28.13;57.92;101317.97;5090995;28;20035;-84
2021/06/18 10:01:19;;;;;;;0.30;0.30;;;;;;;28.38;56.42;101325.69;5091160;28;20146;-84
2021/06/18 10:04:11;;;;;;;0.00;0.00;;;;;;;28.52;56.15;101318.16;5091510;28;20036;-85
2021/06/18 10:06:38;;;;;;;0.50;0.50;;;;;;;28.58;55.90;101325.78;5090602;28;20435;-85
2021/06/18 10:09:07;;;;;;;0.32;0.32;;;;;;;28.68;56.16;101320.41;5091030;28;20368;-85
2021/06/18 10:11:34;;;;;;;0.60;0.60;;;;;;;28.81;56.23;101315.59;5091394;28;20493;-85
2021/06/18 10:14:01;;;;;;;0.43;0.43;;;;;;;28.89;54.87;101306.72;5091238;28;20043;-86
2021/06/18 10:16:29;;;;;;;0.35;0.35;;;;;;;28.99;53.91;101313.03;5091074;28;20028;-86
2021/06/18 10:18:58;;;;;;;1.23;0.65;;;;;;;29.04;55.20;101309.91;5091406;28;20024;-86
2021/06/18 10:21:25;;;;;;;0.30;0.30;;;;;;;29.10;56.86;101295.69;5090457;28;20071;-86
2021/06/18 10:23:58;;;;;;;0.20;0.20;;;;;;;29.33;56.24;101303.66;5091544;28;20020;-85
2021/06/18 10:26:27;;;;;;;0.43;0.43;;;;;;;29.29;56.00;101292.16;5091016;28;20025;-86
2021/06/18 10:28:56;;;;;;;1.40;1.05;;;;;;;29.30;55.95;101295.75;5091516;28;20028;-85
2021/06/18 10:31:29;;;;;;;2.10;1.40;;;;;;;29.48;54.48;101295.91;5091046;28;20036;-86
2021/06/18 10:34:06;;;;;;;0.82;0.82;;;;;;;29.72;54.45;101302.78;5090567;28;20032;-85
2021/06/18 10:36:33;;;;;;;2.05;0.88;;;;;;;29.62;54.55;101292.75;5090731;28;20426;-84
2021/06/18 10:39:08;;;;;;;0.75;0.75;;;;;;;29.80;54.08;101294.72;5090458;28;20032;-84
2021/06/18 10:41:45;;;;;;;0.40;0.40;;;;;;;30.05;52.57;101301.47;5051003;22;20038;-83
2021/06/18 10:44:11;;;;;;;0.43;0.43;;;;;;;30.22;53.83;101296.22;5017447;28;20355;-83
2021/06/18 10:46:38;;;;;;;0.55;0.55;;;;;;;30.21;53.62;101292.66;5016423;28;20086;-83
2021/06/18 10:51:47;;;;;;;0.65;0.65;;;;;;;30.33;51.46;101286.00;5090278;28;20160;-83
2021/06/18 10:54:26;;;;;;;1.00;0.77;;;;;;;30.69;51.92;101284.41;5091309;28;20033;-83
2021/06/18 10:59:43;;;;;;;0.40;0.40;;;;;;;30.92;52.29;101269.31;5087184;27;20169;-84
2021/06/18 11:05:06;;;;;;;0.93;0.93;;;;;;;31.33;49.97;101263.41;5090077;27;20150;-84
2021/06/18 11:07:37;;;;;;;0.75;0.75;;;;;;;31.49;50.13;101253.63;5091206;28;20570;-83
2021/06/18 11:13:00;;;;;;;0.80;0.57;;;;;;;31.64;50.35;101251.19;5090016;28;20164;-83
2021/06/18 11:18:14;;;;;;;0.70;0.63;;;;;;;31.82;49.09;101246.53;5091133;27;20420;-83
2021/06/18 11:23:25;;;;;;;1.52;1.42;;;;;;;31.81;48.99;101242.06;5090044;27;20163;-84
2021/06/18 11:25:57;;;;;;;0.38;0.38;;;;;;;31.83;47.69;101239.16;5091643;28;20141;-84
2021/06/18 11:41:57;;;;;;;0.30;0.30;;;;;;;32.06;48.61;101234.84;5090233;27;20163;-83
2021/06/18 11:44:27;;;;;;;3.35;1.17;;;;;;;32.06;49.86;101240.34;5090444;28;20490;-84
2021/06/18 11:46:55;;;;;;;2.00;1.33;;;;;;;32.21;46.38;101232.41;5091392;28;20024;-84
2021/06/18 11:49:25;;;;;;;3.50;1.23;;;;;;;32.18;47.19;101234.59;5090730;28;20028;-84
2021/06/18 11:51:58;;;;;;;0.50;0.50;;;;;;;32.31;48.20;101231.44;5070867;28;20028;-83
2021/06/18 11:54:30;;;;;;;0.30;0.30;;;;;;;32.14;49.05;101231.31;5071281;28;20031;-84
2021/06/18 11:59:51;;;;;;;1.52;1.42;;;;;;;32.18;49.36;101224.47;5082247;27;20409;-84
2021/06/18 12:02:20;;;;;;;0.57;0.55;;;;;;;32.30;50.00;101224.22;5060299;28;20029;-83
2021/06/18 12:04:59;;;;;;;0.52;0.52;;;;;;;31.93;48.11;101212.53;5059281;28;20045;-83
2021/06/18 12:07:30;;;;;;;0.25;0.25;;;;;;;32.15;48.47;101222.09;5053513;28;20069;-85
2021/06/18 12:09:56;;;;;;;;;;;;;;;32.56;48.54;101213.16;5050620;28;20433;-84
2021/06/18 12:12:22;;;;;;;1.45;1.33;;;;;;;32.48;47.73;101203.03;5051066;28;19920;-84
2021/06/18 12:14:55;;;;;;;0.57;0.57;;;;;;;32.86;48.46;101198.03;5057368;28;20112;-83
2021/06/18 12:17:23;;;;;;;0.40;0.40;;;;;;;33.13;47.45;101197.88;5059730;28;20549;-84
2021/06/18 12:19:49;;;;;;;0.55;0.55;;;;;;;33.17;46.88;101183.66;5060379;28;20033;-85
2021/06/18 12:22:18;;;;;;;1.13;1.08;;;;;;;33.33;44.80;101184.69;5064871;28;20028;-84
2021/06/18 12:27:32;;;;;;;0.22;0.22;;;;;;;33.57;45.88;101183.78;5109344;27;20051;-85
2021/06/18 12:30:03;;;;;;;0.52;0.52;;;;;;;33.75;44.87;101177.22;5105525;28;20046;-85
2021/06/18 12:32:31;;;;;;;2.05;0.68;;;;;;;33.81;44.11;101171.91;5091006;28;20455;-85
2021/06/18 12:35:00;;;;;;;0.60;0.60;;;;;;;33.92;44.60;101173.47;5090175;28;20038;-85
2021/06/18 12:37:30;;;;;;;1.67;0.93;;;;;;;33.96;45.49;101158.31;5089822;28;20030;-86
2021/06/18 12:40:01;;;;;;;4.47;0.90;;;;;;;33.89;45.78;101160.06;5089666;28;20033;-83
2021/06/18 12:42:30;;;;;;;0.88;0.88;;;;;;;33.93;43.73;101155.06;5090019;28;20025;-85